sensor_id;sensor_type;location;lat;lon;timestamp;P1;durP1;ratioP1;P2;durP2;ratioP2
12519;SDS011;6325;49.540;8.364;2024-01-06T00:02:00;1.30;;;1.20;;
12519;SDS011;6325;49.540;8.364;2024-01-06T00:04:26;1.83;;;1.35;;
12519;SDS011;6325;49.540;8.364;2024-01-06T00:06:53;1.98;;;1.50;;
12519;SDS011;6325;49.540;8.364;2024-01-06T00:09:21;5.63;;;3.20;;
12519;SDS011;6325;49.540;8.364;2024-01-06T00:11:48;8.10;;;4.22;;
12519;SDS011;6325;49.540;8.364;2024-01-06T00:14:15;5.00;;;3.10;;
12519;SDS011;6325;49.540;8.364;2024-01-06T00:16:42;3.22;;;2.08;;
12519;SDS011;6325;49.540;8.364;2024-01-06T00:19:08;1.85;;;1.60;;
12519;SDS011;6325;49.540;8.364;2024-01-06T00:21:35;2.00;;;1.40;;
12519;SDS011;6325;49.540;8.364;2024-01-06T00:24:02;3.25;;;1.98;;
12519;SDS011;6325;49.540;8.364;2024-01-06T00:26:30;5.85;;;3.38;;
12519;SDS011;6325;49.540;8.364;2024-01-06T00:28:57;5.63;;;3.70;;
12519;SDS011;6325;49.540;8.364;2024-01-06T00:31:24;8.05;;;4.32;;
12519;SDS011;6325;49.540;8.364;2024-01-06T00:33:50;7.63;;;3.83;;
12519;SDS011;6325;49.540;8.364;2024-01-06T00:36:17;5.90;;;3.53;;
12519;SDS011;6325;49.540;8.364;2024-01-06T00:38:44;3.97;;;2.67;;
12519;SDS011;6325;49.540;8.364;2024-01-06T00:41:11;2.80;;;2.00;;
12519;SDS011;6325;49.540;8.364;2024-01-06T00:43:39;2.40;;;1.85;;
12519;SDS011;6325;49.540;8.364;2024-01-06T00:46:05;1.50;;;1.40;;
12519;SDS011;6325;49.540;8.364;2024-01-06T00:48:32;2.15;;;1.60;;
12519;SDS011;6325;49.540;8.364;2024-01-06T00:50:59;1.75;;;1.60;;
12519;SDS011;6325;49.540;8.364;2024-01-06T00:53:26;1.60;;;1.50;;
12519;SDS011;6325;49.540;8.364;2024-01-06T00:55:53;1.60;;;1.50;;
12519;SDS011;6325;49.540;8.364;2024-01-06T00:58:19;1.80;;;1.50;;
12519;SDS011;6325;49.540;8.364;2024-01-06T01:00:47;1.57;;;1.47;;
12519;SDS011;6325;49.540;8.364;2024-01-06T01:03:14;1.90;;;1.70;;
12519;SDS011;6325;49.540;8.364;2024-01-06T01:05:41;1.42;;;1.33;;
12519;SDS011;6325;49.540;8.364;2024-01-06T01:08:08;1.60;;;1.50;;
12519;SDS011;6325;49.540;8.364;2024-01-06T01:10:35;1.90;;;1.70;;
12519;SDS011;6325;49.540;8.364;2024-01-06T01:13:02;1.73;;;1.63;;
12519;SDS011;6325;49.540;8.364;2024-01-06T01:15:28;2.22;;;1.73;;
12519;SDS011;6325;49.540;8.364;2024-01-06T01:17:56;3.47;;;2.15;;
12519;SDS011;6325;49.540;8.364;2024-01-06T01:20:23;2.42;;;2.00;;
12519;SDS011;6325;49.540;8.364;2024-01-06T01:22:50;3.22;;;2.30;;
12519;SDS011;6325;49.540;8.364;2024-01-06T01:25:17;2.45;;;1.80;;
12519;SDS011;6325;49.540;8.364;2024-01-06T01:27:43;3.80;;;2.40;;
12519;SDS011;6325;49.540;8.364;2024-01-06T01:30:10;2.55;;;1.90;;
12519;SDS011;6325;49.540;8.364;2024-01-06T01:32:39;3.78;;;2.17;;
12519;SDS011;6325;49.540;8.364;2024-01-06T01:35:07;2.85;;;1.90;;
12519;SDS011;6325;49.540;8.364;2024-01-06T01:37:34;4.10;;;2.75;;
12519;SDS011;6325;49.540;8.364;2024-01-06T01:40:01;5.17;;;2.97;;
12519;SDS011;6325;49.540;8.364;2024-01-06T01:42:28;5.25;;;3.10;;
12519;SDS011;6325;49.540;8.364;2024-01-06T01:44:54;5.50;;;3.33;;
12519;SDS011;6325;49.540;8.364;2024-01-06T01:47:21;6.18;;;3.50;;
12519;SDS011;6325;49.540;8.364;2024-01-06T01:49:48;5.43;;;2.70;;
12519;SDS011;6325;49.540;8.364;2024-01-06T01:52:17;3.53;;;2.22;;
12519;SDS011;6325;49.540;8.364;2024-01-06T01:54:45;3.58;;;2.28;;
12519;SDS011;6325;49.540;8.364;2024-01-06T01:57:13;4.43;;;2.60;;
12519;SDS011;6325;49.540;8.364;2024-01-06T01:59:41;7.50;;;4.13;;
12519;SDS011;6325;49.540;8.364;2024-01-06T02:02:08;5.90;;;3.22;;
12519;SDS011;6325;49.540;8.364;2024-01-06T02:04:35;2.95;;;2.20;;
12519;SDS011;6325;49.540;8.364;2024-01-06T02:07:02;1.85;;;1.67;;
12519;SDS011;6325;49.540;8.364;2024-01-06T02:09:31;4.28;;;2.70;;
12519;SDS011;6325;49.540;8.364;2024-01-06T02:11:57;3.60;;;2.10;;
12519;SDS011;6325;49.540;8.364;2024-01-06T02:14:24;2.58;;;1.60;;
12519;SDS011;6325;49.540;8.364;2024-01-06T02:16:51;1.90;;;1.63;;
12519;SDS011;6325;49.540;8.364;2024-01-06T02:19:17;2.27;;;1.40;;
12519;SDS011;6325;49.540;8.364;2024-01-06T02:21:48;1.48;;;1.38;;
12519;SDS011;6325;49.540;8.364;2024-01-06T02:24:17;1.40;;;1.30;;
12519;SDS011;6325;49.540;8.364;2024-01-06T02:26:43;1.58;;;1.48;;
12519;SDS011;6325;49.540;8.364;2024-01-06T02:29:10;1.50;;;1.40;;
12519;SDS011;6325;49.540;8.364;2024-01-06T02:31:37;1.73;;;1.63;;
12519;SDS011;6325;49.540;8.364;2024-01-06T02:34:03;1.58;;;1.48;;
12519;SDS011;6325;49.540;8.364;2024-01-06T02:36:30;1.63;;;1.52;;
12519;SDS011;6325;49.540;8.364;2024-01-06T02:38:58;1.60;;;1.50;;
12519;SDS011;6325;49.540;8.364;2024-01-06T02:41:25;1.55;;;1.45;;
12519;SDS011;6325;49.540;8.364;2024-01-06T02:43:54;2.30;;;1.50;;
12519;SDS011;6325;49.540;8.364;2024-01-06T02:46:21;1.55;;;1.45;;
12519;SDS011;6325;49.540;8.364;2024-01-06T02:48:48;1.73;;;1.63;;
12519;SDS011;6325;49.540;8.364;2024-01-06T02:51:15;1.45;;;1.35;;
12519;SDS011;6325;49.540;8.364;2024-01-06T02:53:41;1.55;;;1.40;;
12519;SDS011;6325;49.540;8.364;2024-01-06T02:56:10;1.55;;;1.42;;
12519;SDS011;6325;49.540;8.364;2024-01-06T02:58:38;1.13;;;1.13;;
12519;SDS011;6325;49.540;8.364;2024-01-06T03:01:05;1.40;;;1.30;;
12519;SDS011;6325;49.540;8.364;2024-01-06T03:03:32;1.45;;;1.35;;
12519;SDS011;6325;49.540;8.364;2024-01-06T03:05:58;1.50;;;1.40;;
12519;SDS011;6325;49.540;8.364;2024-01-06T03:08:25;1.10;;;1.10;;
12519;SDS011;6325;49.540;8.364;2024-01-06T03:10:52;1.30;;;1.10;;
12519;SDS011;6325;49.540;8.364;2024-01-06T03:13:20;1.30;;;1.20;;
12519;SDS011;6325;49.540;8.364;2024-01-06T03:15:47;1.40;;;1.10;;
12519;SDS011;6325;49.540;8.364;2024-01-06T03:18:14;1.30;;;1.20;;
12519;SDS011;6325;49.540;8.364;2024-01-06T03:20:41;1.38;;;1.10;;
12519;SDS011;6325;49.540;8.364;2024-01-06T03:23:07;1.10;;;1.10;;
12519;SDS011;6325;49.540;8.364;2024-01-06T03:25:34;1.20;;;1.10;;
12519;SDS011;6325;49.540;8.364;2024-01-06T03:28:01;1.33;;;1.23;;
12519;SDS011;6325;49.540;8.364;2024-01-06T03:30:29;1.40;;;1.05;;
12519;SDS011;6325;49.540;8.364;2024-01-06T03:32:56;0.98;;;0.93;;
12519;SDS011;6325;49.540;8.364;2024-01-06T03:35:23;1.00;;;1.00;;
12519;SDS011;6325;49.540;8.364;2024-01-06T03:37:49;0.90;;;0.90;;
12519;SDS011;6325;49.540;8.364;2024-01-06T03:40:16;1.05;;;1.00;;
12519;SDS011;6325;49.540;8.364;2024-01-06T03:42:43;1.15;;;1.02;;
12519;SDS011;6325;49.540;8.364;2024-01-06T03:45:09;1.25;;;1.15;;
12519;SDS011;6325;49.540;8.364;2024-01-06T03:47:37;1.10;;;0.90;;
12519;SDS011;6325;49.540;8.364;2024-01-06T03:50:05;1.05;;;0.90;;
12519;SDS011;6325;49.540;8.364;2024-01-06T03:52:32;1.10;;;1.00;;
12519;SDS011;6325;49.540;8.364;2024-01-06T03:54:58;1.20;;;1.10;;
12519;SDS011;6325;49.540;8.364;2024-01-06T03:57:25;1.00;;;0.90;;
12519;SDS011;6325;49.540;8.364;2024-01-06T03:59:52;1.10;;;1.00;;
12519;SDS011;6325;49.540;8.364;2024-01-06T04:02:19;1.00;;;1.00;;
12519;SDS011;6325;49.540;8.364;2024-01-06T04:04:47;0.90;;;0.90;;
12519;SDS011;6325;49.540;8.364;2024-01-06T04:07:13;0.93;;;0.90;;
12519;SDS011;6325;49.540;8.364;2024-01-06T04:09:41;0.98;;;0.98;;
12519;SDS011;6325;49.540;8.364;2024-01-06T04:12:08;1.13;;;1.00;;
12519;SDS011;6325;49.540;8.364;2024-01-06T04:14:35;1.00;;;1.00;;
12519;SDS011;6325;49.540;8.364;2024-01-06T04:17:02;1.20;;;1.10;;
12519;SDS011;6325;49.540;8.364;2024-01-06T04:19:29;1.23;;;1.13;;
12519;SDS011;6325;49.540;8.364;2024-01-06T04:21:57;1.23;;;1.13;;
12519;SDS011;6325;49.540;8.364;2024-01-06T04:24:24;1.20;;;1.10;;
12519;SDS011;6325;49.540;8.364;2024-01-06T04:26:50;1.20;;;1.10;;
12519;SDS011;6325;49.540;8.364;2024-01-06T04:29:17;1.10;;;1.00;;
12519;SDS011;6325;49.540;8.364;2024-01-06T04:31:44;1.10;;;1.10;;
12519;SDS011;6325;49.540;8.364;2024-01-06T04:34:11;1.52;;;1.13;;
12519;SDS011;6325;49.540;8.364;2024-01-06T04:36:37;1.05;;;1.05;;
12519;SDS011;6325;49.540;8.364;2024-01-06T04:39:06;1.30;;;1.10;;
12519;SDS011;6325;49.540;8.364;2024-01-06T04:41:33;1.10;;;1.10;;
12519;SDS011;6325;49.540;8.364;2024-01-06T04:43:59;1.10;;;1.10;;
12519;SDS011;6325;49.540;8.364;2024-01-06T04:46:26;1.17;;;1.17;;
12519;SDS011;6325;49.540;8.364;2024-01-06T04:48:53;1.27;;;1.20;;
12519;SDS011;6325;49.540;8.364;2024-01-06T04:51:19;0.98;;;0.98;;
12519;SDS011;6325;49.540;8.364;2024-01-06T04:53:46;1.30;;;1.20;;
12519;SDS011;6325;49.540;8.364;2024-01-06T04:56:14;1.37;;;1.27;;
12519;SDS011;6325;49.540;8.364;2024-01-06T04:58:41;1.50;;;1.40;;
12519;SDS011;6325;49.540;8.364;2024-01-06T05:01:08;1.42;;;1.20;;
12519;SDS011;6325;49.540;8.364;2024-01-06T05:03:35;1.55;;;1.45;;
12519;SDS011;6325;49.540;8.364;2024-01-06T05:06:01;1.65;;;1.30;;
12519;SDS011;6325;49.540;8.364;2024-01-06T05:08:29;1.33;;;1.23;;
12519;SDS011;6325;49.540;8.364;2024-01-06T05:10:56;1.20;;;1.10;;
12519;SDS011;6325;49.540;8.364;2024-01-06T05:13:24;1.25;;;1.15;;
12519;SDS011;6325;49.540;8.364;2024-01-06T05:15:51;1.45;;;1.20;;
12519;SDS011;6325;49.540;8.364;2024-01-06T05:18:18;1.33;;;1.23;;
12519;SDS011;6325;49.540;8.364;2024-01-06T05:20:44;1.40;;;1.30;;
12519;SDS011;6325;49.540;8.364;2024-01-06T05:23:11;1.45;;;1.35;;
12519;SDS011;6325;49.540;8.364;2024-01-06T05:25:38;1.50;;;1.40;;
12519;SDS011;6325;49.540;8.364;2024-01-06T05:28:05;1.90;;;1.20;;
12519;SDS011;6325;49.540;8.364;2024-01-06T05:30:33;1.65;;;1.48;;
12519;SDS011;6325;49.540;8.364;2024-01-06T05:33:00;1.80;;;1.40;;
12519;SDS011;6325;49.540;8.364;2024-01-06T05:35:27;1.80;;;1.67;;
12519;SDS011;6325;49.540;8.364;2024-01-06T05:37:54;1.80;;;1.40;;
12519;SDS011;6325;49.540;8.364;2024-01-06T05:40:21;1.25;;;1.20;;
12519;SDS011;6325;49.540;8.364;2024-01-06T05:42:48;1.70;;;1.42;;
12519;SDS011;6325;49.540;8.364;2024-01-06T05:45:17;1.58;;;1.35;;
12519;SDS011;6325;49.540;8.364;2024-01-06T05:47:45;1.50;;;1.40;;
12519;SDS011;6325;49.540;8.364;2024-01-06T05:50:14;1.70;;;1.60;;
12519;SDS011;6325;49.540;8.364;2024-01-06T05:52:41;1.60;;;1.50;;
12519;SDS011;6325;49.540;8.364;2024-01-06T05:55:08;1.40;;;1.30;;
12519;SDS011;6325;49.540;8.364;2024-01-06T05:57:35;1.30;;;1.30;;
12519;SDS011;6325;49.540;8.364;2024-01-06T06:00:02;1.80;;;1.45;;
12519;SDS011;6325;49.540;8.364;2024-01-06T06:02:29;1.35;;;1.25;;
12519;SDS011;6325;49.540;8.364;2024-01-06T06:04:58;1.70;;;1.30;;
12519;SDS011;6325;49.540;8.364;2024-01-06T06:07:25;1.40;;;1.30;;
12519;SDS011;6325;49.540;8.364;2024-01-06T06:09:52;2.47;;;1.73;;
12519;SDS011;6325;49.540;8.364;2024-01-06T06:12:19;1.60;;;1.50;;
12519;SDS011;6325;49.540;8.364;2024-01-06T06:14:45;1.60;;;1.50;;
12519;SDS011;6325;49.540;8.364;2024-01-06T06:17:12;1.58;;;1.48;;
12519;SDS011;6325;49.540;8.364;2024-01-06T06:19:39;1.83;;;1.70;;
12519;SDS011;6325;49.540;8.364;2024-01-06T06:22:07;1.48;;;1.48;;
12519;SDS011;6325;49.540;8.364;2024-01-06T06:24:34;1.90;;;1.50;;
12519;SDS011;6325;49.540;8.364;2024-01-06T06:27:00;1.42;;;1.38;;
12519;SDS011;6325;49.540;8.364;2024-01-06T06:29:27;1.70;;;1.60;;
12519;SDS011;6325;49.540;8.364;2024-01-06T06:31:54;1.63;;;1.52;;
12519;SDS011;6325;49.540;8.364;2024-01-06T06:34:21;1.50;;;1.40;;
12519;SDS011;6325;49.540;8.364;2024-01-06T06:36:48;1.38;;;1.27;;
12519;SDS011;6325;49.540;8.364;2024-01-06T06:39:16;1.50;;;1.40;;
12519;SDS011;6325;49.540;8.364;2024-01-06T06:41:43;1.40;;;1.30;;
12519;SDS011;6325;49.540;8.364;2024-01-06T06:44:10;1.70;;;1.23;;
12519;SDS011;6325;49.540;8.364;2024-01-06T06:46:37;1.73;;;1.63;;
12519;SDS011;6325;49.540;8.364;2024-01-06T06:49:04;1.40;;;1.40;;
12519;SDS011;6325;49.540;8.364;2024-01-06T06:51:31;1.90;;;1.58;;
12519;SDS011;6325;49.540;8.364;2024-01-06T06:53:57;1.40;;;1.30;;
12519;SDS011;6325;49.540;8.364;2024-01-06T06:56:26;1.88;;;1.70;;
12519;SDS011;6325;49.540;8.364;2024-01-06T06:58:52;1.60;;;1.50;;
12519;SDS011;6325;49.540;8.364;2024-01-06T07:01:19;1.60;;;1.50;;
12519;SDS011;6325;49.540;8.364;2024-01-06T07:03:46;1.48;;;1.40;;
12519;SDS011;6325;49.540;8.364;2024-01-06T07:06:13;1.55;;;1.45;;
12519;SDS011;6325;49.540;8.364;2024-01-06T07:08:39;1.40;;;1.30;;
12519;SDS011;6325;49.540;8.364;2024-01-06T07:11:07;1.80;;;1.70;;
12519;SDS011;6325;49.540;8.364;2024-01-06T07:13:35;1.73;;;1.63;;
12519;SDS011;6325;49.540;8.364;2024-01-06T07:16:02;1.70;;;1.60;;
12519;SDS011;6325;49.540;8.364;2024-01-06T07:18:29;1.40;;;1.40;;
12519;SDS011;6325;49.540;8.364;2024-01-06T07:20:55;1.67;;;1.58;;
12519;SDS011;6325;49.540;8.364;2024-01-06T07:23:23;1.70;;;1.60;;
12519;SDS011;6325;49.540;8.364;2024-01-06T07:25:50;2.08;;;1.90;;
12519;SDS011;6325;49.540;8.364;2024-01-06T07:28:16;1.60;;;1.50;;
12519;SDS011;6325;49.540;8.364;2024-01-06T07:30:44;1.90;;;1.80;;
12519;SDS011;6325;49.540;8.364;2024-01-06T07:33:12;1.70;;;1.60;;
12519;SDS011;6325;49.540;8.364;2024-01-06T07:35:39;1.88;;;1.77;;
12519;SDS011;6325;49.540;8.364;2024-01-06T07:38:08;1.60;;;1.50;;
12519;SDS011;6325;49.540;8.364;2024-01-06T07:40:36;1.80;;;1.70;;
12519;SDS011;6325;49.540;8.364;2024-01-06T07:43:03;2.00;;;1.80;;
12519;SDS011;6325;49.540;8.364;2024-01-06T07:45:30;1.97;;;1.87;;
12519;SDS011;6325;49.540;8.364;2024-01-06T07:47:59;1.73;;;1.63;;
12519;SDS011;6325;49.540;8.364;2024-01-06T07:50:25;3.10;;;2.20;;
12519;SDS011;6325;49.540;8.364;2024-01-06T07:52:53;2.10;;;2.00;;
12519;SDS011;6325;49.540;8.364;2024-01-06T07:55:19;1.90;;;1.80;;
12519;SDS011;6325;49.540;8.364;2024-01-06T07:57:46;2.88;;;2.58;;
12519;SDS011;6325;49.540;8.364;2024-01-06T08:00:13;2.30;;;2.20;;
12519;SDS011;6325;49.540;8.364;2024-01-06T08:02:40;2.33;;;2.22;;
12519;SDS011;6325;49.540;8.364;2024-01-06T08:05:08;2.50;;;2.30;;
12519;SDS011;6325;49.540;8.364;2024-01-06T08:07:35;2.47;;;2.28;;
12519;SDS011;6325;49.540;8.364;2024-01-06T08:10:03;2.20;;;2.10;;
12519;SDS011;6325;49.540;8.364;2024-01-06T08:12:30;2.10;;;2.00;;
12519;SDS011;6325;49.540;8.364;2024-01-06T08:14:57;2.33;;;2.20;;
12519;SDS011;6325;49.540;8.364;2024-01-06T08:17:24;2.10;;;2.00;;
12519;SDS011;6325;49.540;8.364;2024-01-06T08:19:51;2.08;;;1.98;;
12519;SDS011;6325;49.540;8.364;2024-01-06T08:22:19;2.15;;;2.05;;
12519;SDS011;6325;49.540;8.364;2024-01-06T08:24:46;2.30;;;2.15;;
12519;SDS011;6325;49.540;8.364;2024-01-06T08:27:13;2.50;;;2.30;;
12519;SDS011;6325;49.540;8.364;2024-01-06T08:29:40;2.17;;;2.08;;
12519;SDS011;6325;49.540;8.364;2024-01-06T08:32:06;2.00;;;1.90;;
12519;SDS011;6325;49.540;8.364;2024-01-06T08:34:35;2.00;;;1.90;;
12519;SDS011;6325;49.540;8.364;2024-01-06T08:37:01;2.30;;;2.13;;
12519;SDS011;6325;49.540;8.364;2024-01-06T08:39:30;2.35;;;2.20;;
12519;SDS011;6325;49.540;8.364;2024-01-06T08:41:57;2.22;;;2.05;;
12519;SDS011;6325;49.540;8.364;2024-01-06T08:44:23;2.22;;;2.13;;
12519;SDS011;6325;49.540;8.364;2024-01-06T08:46:50;2.30;;;2.10;;
12519;SDS011;6325;49.540;8.364;2024-01-06T08:49:17;2.65;;;2.45;;
12519;SDS011;6325;49.540;8.364;2024-01-06T08:51:44;2.20;;;2.10;;
12519;SDS011;6325;49.540;8.364;2024-01-06T08:54:10;2.10;;;2.00;;
12519;SDS011;6325;49.540;8.364;2024-01-06T08:56:38;2.20;;;2.00;;
12519;SDS011;6325;49.540;8.364;2024-01-06T08:59:05;2.10;;;2.00;;
12519;SDS011;6325;49.540;8.364;2024-01-06T09:01:32;2.70;;;2.50;;
12519;SDS011;6325;49.540;8.364;2024-01-06T09:04:01;2.50;;;2.30;;
12519;SDS011;6325;49.540;8.364;2024-01-06T09:06:29;2.40;;;2.30;;
12519;SDS011;6325;49.540;8.364;2024-01-06T09:08:56;2.40;;;2.20;;
12519;SDS011;6325;49.540;8.364;2024-01-06T09:11:23;2.25;;;2.15;;
12519;SDS011;6325;49.540;8.364;2024-01-06T09:13:51;2.58;;;2.38;;
12519;SDS011;6325;49.540;8.364;2024-01-06T09:16:18;2.55;;;2.38;;
12519;SDS011;6325;49.540;8.364;2024-01-06T09:18:45;2.70;;;2.50;;
12519;SDS011;6325;49.540;8.364;2024-01-06T09:21:12;2.60;;;2.40;;
12519;SDS011;6325;49.540;8.364;2024-01-06T09:23:38;2.87;;;2.67;;
12519;SDS011;6325;49.540;8.364;2024-01-06T09:26:05;2.30;;;2.20;;
12519;SDS011;6325;49.540;8.364;2024-01-06T09:28:32;2.28;;;2.17;;
12519;SDS011;6325;49.540;8.364;2024-01-06T09:31:00;2.90;;;2.70;;
12519;SDS011;6325;49.540;8.364;2024-01-06T09:33:27;2.97;;;2.78;;
12519;SDS011;6325;49.540;8.364;2024-01-06T09:35:54;2.75;;;2.55;;
12519;SDS011;6325;49.540;8.364;2024-01-06T09:38:20;2.60;;;2.50;;
12519;SDS011;6325;49.540;8.364;2024-01-06T09:40:47;2.80;;;2.60;;
12519;SDS011;6325;49.540;8.364;2024-01-06T09:43:15;2.50;;;2.40;;
12519;SDS011;6325;49.540;8.364;2024-01-06T09:45:42;3.08;;;2.88;;
12519;SDS011;6325;49.540;8.364;2024-01-06T09:48:12;3.00;;;2.80;;
12519;SDS011;6325;49.540;8.364;2024-01-06T09:50:40;2.90;;;2.70;;
12519;SDS011;6325;49.540;8.364;2024-01-06T09:53:10;2.80;;;2.60;;
12519;SDS011;6325;49.540;8.364;2024-01-06T09:55:38;2.80;;;2.60;;
12519;SDS011;6325;49.540;8.364;2024-01-06T09:58:05;2.97;;;2.78;;
12519;SDS011;6325;49.540;8.364;2024-01-06T10:00:32;3.20;;;3.00;;
12519;SDS011;6325;49.540;8.364;2024-01-06T10:02:59;3.10;;;2.90;;
12519;SDS011;6325;49.540;8.364;2024-01-06T10:05:27;3.13;;;2.90;;
12519;SDS011;6325;49.540;8.364;2024-01-06T10:07:54;2.80;;;2.50;;
12519;SDS011;6325;49.540;8.364;2024-01-06T10:10:22;2.88;;;2.67;;
12519;SDS011;6325;49.540;8.364;2024-01-06T10:12:49;3.40;;;3.10;;
12519;SDS011;6325;49.540;8.364;2024-01-06T10:15:20;3.28;;;3.08;;
12519;SDS011;6325;49.540;8.364;2024-01-06T10:17:47;2.75;;;2.55;;
12519;SDS011;6325;49.540;8.364;2024-01-06T10:20:15;3.30;;;3.00;;
12519;SDS011;6325;49.540;8.364;2024-01-06T10:22:44;3.10;;;2.90;;
12519;SDS011;6325;49.540;8.364;2024-01-06T10:25:12;3.47;;;3.17;;
12519;SDS011;6325;49.540;8.364;2024-01-06T10:27:40;3.20;;;2.97;;
12519;SDS011;6325;49.540;8.364;2024-01-06T10:30:08;3.42;;;3.20;;
12519;SDS011;6325;49.540;8.364;2024-01-06T10:32:36;3.30;;;3.00;;
12519;SDS011;6325;49.540;8.364;2024-01-06T10:35:03;3.00;;;2.80;;
12519;SDS011;6325;49.540;8.364;2024-01-06T10:37:32;3.25;;;3.05;;
12519;SDS011;6325;49.540;8.364;2024-01-06T10:40:10;3.40;;;3.20;;
12519;SDS011;6325;49.540;8.364;2024-01-06T10:49:07;3.60;;;3.30;;
12519;SDS011;6325;49.540;8.364;2024-01-06T10:51:36;3.28;;;2.97;;
12519;SDS011;6325;49.540;8.364;2024-01-06T10:54:03;3.40;;;3.17;;
12519;SDS011;6325;49.540;8.364;2024-01-06T10:56:33;3.30;;;3.00;;
12519;SDS011;6325;49.540;8.364;2024-01-06T10:59:04;3.40;;;3.20;;
12519;SDS011;6325;49.540;8.364;2024-01-06T11:01:32;3.53;;;3.22;;
12519;SDS011;6325;49.540;8.364;2024-01-06T11:04:00;3.53;;;3.22;;
12519;SDS011;6325;49.540;8.364;2024-01-06T11:06:29;3.70;;;3.40;;
12519;SDS011;6325;49.540;8.364;2024-01-06T11:08:59;3.90;;;3.60;;
12519;SDS011;6325;49.540;8.364;2024-01-06T11:11:30;3.70;;;3.40;;
12519;SDS011;6325;49.540;8.364;2024-01-06T11:16:44;3.42;;;3.20;;
12519;SDS011;6325;49.540;8.364;2024-01-06T11:24:51;3.60;;;3.30;;
12519;SDS011;6325;49.540;8.364;2024-01-06T11:27:22;3.80;;;3.50;;
12519;SDS011;6325;49.540;8.364;2024-01-06T11:29:51;4.00;;;3.70;;
12519;SDS011;6325;49.540;8.364;2024-01-06T11:32:19;3.80;;;3.50;;
12519;SDS011;6325;49.540;8.364;2024-01-06T11:34:50;3.83;;;3.50;;
12519;SDS011;6325;49.540;8.364;2024-01-06T11:37:20;4.03;;;3.72;;
12519;SDS011;6325;49.540;8.364;2024-01-06T11:39:50;4.55;;;4.15;;
12519;SDS011;6325;49.540;8.364;2024-01-06T11:42:18;4.40;;;4.00;;
12519;SDS011;6325;49.540;8.364;2024-01-06T11:44:49;5.57;;;4.95;;
12519;SDS011;6325;49.540;8.364;2024-01-06T11:47:16;4.45;;;4.05;;
12519;SDS011;6325;49.540;8.364;2024-01-06T11:49:48;4.93;;;4.32;;
12519;SDS011;6325;49.540;8.364;2024-01-06T11:52:20;5.40;;;4.50;;
12519;SDS011;6325;49.540;8.364;2024-01-06T11:54:47;5.18;;;4.53;;
12519;SDS011;6325;49.540;8.364;2024-01-06T11:57:14;4.32;;;3.92;;
12519;SDS011;6325;49.540;8.364;2024-01-06T11:59:41;3.97;;;3.67;;
12519;SDS011;6325;49.540;8.364;2024-01-06T12:02:13;3.85;;;3.55;;
12519;SDS011;6325;49.540;8.364;2024-01-06T12:04:44;3.97;;;3.67;;
12519;SDS011;6325;49.540;8.364;2024-01-06T12:07:15;3.90;;;3.60;;
12519;SDS011;6325;49.540;8.364;2024-01-06T12:09:47;4.18;;;3.88;;
12519;SDS011;6325;49.540;8.364;2024-01-06T12:12:18;3.83;;;3.53;;
12519;SDS011;6325;49.540;8.364;2024-01-06T12:14:45;3.90;;;3.60;;
12519;SDS011;6325;49.540;8.364;2024-01-06T12:17:13;4.17;;;3.80;;
12519;SDS011;6325;49.540;8.364;2024-01-06T12:19:40;3.75;;;3.45;;
12519;SDS011;6325;49.540;8.364;2024-01-06T12:22:09;3.80;;;3.50;;
12519;SDS011;6325;49.540;8.364;2024-01-06T12:24:37;3.80;;;3.50;;
12519;SDS011;6325;49.540;8.364;2024-01-06T12:27:06;3.60;;;3.30;;
12519;SDS011;6325;49.540;8.364;2024-01-06T12:29:33;3.45;;;3.25;;
12519;SDS011;6325;49.540;8.364;2024-01-06T12:31:59;3.58;;;3.28;;
12519;SDS011;6325;49.540;8.364;2024-01-06T12:34:28;3.95;;;3.65;;
12519;SDS011;6325;49.540;8.364;2024-01-06T12:36:54;4.10;;;3.80;;
12519;SDS011;6325;49.540;8.364;2024-01-06T12:39:21;4.05;;;3.75;;
12519;SDS011;6325;49.540;8.364;2024-01-06T12:41:50;3.80;;;3.50;;
12519;SDS011;6325;49.540;8.364;2024-01-06T12:44:16;3.58;;;3.30;;
12519;SDS011;6325;49.540;8.364;2024-01-06T12:46:43;3.50;;;3.30;;
12519;SDS011;6325;49.540;8.364;2024-01-06T12:49:10;3.70;;;3.40;;
12519;SDS011;6325;49.540;8.364;2024-01-06T12:51:39;4.05;;;3.75;;
12519;SDS011;6325;49.540;8.364;2024-01-06T12:54:08;3.92;;;3.63;;
12519;SDS011;6325;49.540;8.364;2024-01-06T12:56:34;3.60;;;3.40;;
12519;SDS011;6325;49.540;8.364;2024-01-06T12:59:01;3.90;;;3.60;;
12519;SDS011;6325;49.540;8.364;2024-01-06T13:01:28;3.60;;;3.38;;
12519;SDS011;6325;49.540;8.364;2024-01-06T13:03:55;3.80;;;3.50;;
12519;SDS011;6325;49.540;8.364;2024-01-06T13:06:25;3.90;;;3.60;;
12519;SDS011;6325;49.540;8.364;2024-01-06T13:09:01;4.00;;;3.60;;
12519;SDS011;6325;49.540;8.364;2024-01-06T13:11:31;3.58;;;3.30;;
12519;SDS011;6325;49.540;8.364;2024-01-06T13:13:59;4.15;;;3.80;;
12519;SDS011;6325;49.540;8.364;2024-01-06T13:16:26;4.00;;;3.70;;
12519;SDS011;6325;49.540;8.364;2024-01-06T13:18:53;3.97;;;3.67;;
12519;SDS011;6325;49.540;8.364;2024-01-06T13:21:20;4.30;;;3.90;;
12519;SDS011;6325;49.540;8.364;2024-01-06T13:23:47;4.13;;;3.83;;
12519;SDS011;6325;49.540;8.364;2024-01-06T13:26:15;4.15;;;3.85;;
12519;SDS011;6325;49.540;8.364;2024-01-06T13:28:41;4.32;;;3.92;;
12519;SDS011;6325;49.540;8.364;2024-01-06T13:31:08;4.70;;;4.30;;
12519;SDS011;6325;49.540;8.364;2024-01-06T13:33:35;3.90;;;3.60;;
12519;SDS011;6325;49.540;8.364;2024-01-06T13:36:04;3.50;;;3.20;;
12519;SDS011;6325;49.540;8.364;2024-01-06T13:38:31;3.70;;;3.50;;
12519;SDS011;6325;49.540;8.364;2024-01-06T13:40:58;3.80;;;3.50;;
12519;SDS011;6325;49.540;8.364;2024-01-06T13:43:26;3.70;;;3.40;;
12519;SDS011;6325;49.540;8.364;2024-01-06T13:45:53;4.00;;;3.70;;
12519;SDS011;6325;49.540;8.364;2024-01-06T13:48:20;4.30;;;4.00;;
12519;SDS011;6325;49.540;8.364;2024-01-06T13:50:46;4.05;;;3.75;;
12519;SDS011;6325;49.540;8.364;2024-01-06T13:53:13;4.20;;;3.90;;
12519;SDS011;6325;49.540;8.364;2024-01-06T13:55:41;4.30;;;4.00;;
12519;SDS011;6325;49.540;8.364;2024-01-06T13:58:08;4.43;;;4.03;;
12519;SDS011;6325;49.540;8.364;2024-01-06T14:00:37;4.78;;;4.38;;
12519;SDS011;6325;49.540;8.364;2024-01-06T14:03:03;4.50;;;4.20;;
12519;SDS011;6325;49.540;8.364;2024-01-06T14:05:31;4.00;;;3.70;;
12519;SDS011;6325;49.540;8.364;2024-01-06T14:07:59;3.75;;;3.45;;
12519;SDS011;6325;49.540;8.364;2024-01-06T14:10:26;3.40;;;3.20;;
12519;SDS011;6325;49.540;8.364;2024-01-06T14:12:53;3.45;;;3.20;;
12519;SDS011;6325;49.540;8.364;2024-01-06T14:15:20;3.70;;;3.40;;
12519;SDS011;6325;49.540;8.364;2024-01-06T14:17:48;3.20;;;3.00;;
12519;SDS011;6325;49.540;8.364;2024-01-06T14:20:16;3.20;;;3.00;;
12519;SDS011;6325;49.540;8.364;2024-01-06T14:22:43;3.20;;;3.00;;
12519;SDS011;6325;49.540;8.364;2024-01-06T14:25:10;3.47;;;3.20;;
12519;SDS011;6325;49.540;8.364;2024-01-06T14:27:37;3.27;;;3.07;;
12519;SDS011;6325;49.540;8.364;2024-01-06T14:30:05;3.70;;;3.40;;
12519;SDS011;6325;49.540;8.364;2024-01-06T14:32:34;3.60;;;3.30;;
12519;SDS011;6325;49.540;8.364;2024-01-06T14:35:03;3.50;;;3.30;;
12519;SDS011;6325;49.540;8.364;2024-01-06T14:37:31;3.40;;;3.20;;
12519;SDS011;6325;49.540;8.364;2024-01-06T14:39:58;3.85;;;3.55;;
12519;SDS011;6325;49.540;8.364;2024-01-06T14:42:30;3.60;;;3.40;;
12519;SDS011;6325;49.540;8.364;2024-01-06T14:44:56;3.60;;;3.40;;
12519;SDS011;6325;49.540;8.364;2024-01-06T14:47:23;3.72;;;3.42;;
12519;SDS011;6325;49.540;8.364;2024-01-06T14:49:50;3.80;;;3.50;;
12519;SDS011;6325;49.540;8.364;2024-01-06T14:52:18;3.90;;;3.60;;
12519;SDS011;6325;49.540;8.364;2024-01-06T14:54:45;4.03;;;3.72;;
12519;SDS011;6325;49.540;8.364;2024-01-06T14:57:13;3.80;;;3.50;;
12519;SDS011;6325;49.540;8.364;2024-01-06T14:59:40;3.72;;;3.47;;
12519;SDS011;6325;49.540;8.364;2024-01-06T15:02:08;3.67;;;3.38;;
12519;SDS011;6325;49.540;8.364;2024-01-06T15:04:36;4.10;;;3.80;;
12519;SDS011;6325;49.540;8.364;2024-01-06T15:07:03;4.20;;;3.90;;
12519;SDS011;6325;49.540;8.364;2024-01-06T15:09:31;4.30;;;4.00;;
12519;SDS011;6325;49.540;8.364;2024-01-06T15:11:58;4.38;;;4.07;;
12519;SDS011;6325;49.540;8.364;2024-01-06T15:14:25;4.40;;;4.10;;
12519;SDS011;6325;49.540;8.364;2024-01-06T15:16:51;4.43;;;4.10;;